createdAt,value
2017-11-20T00:00:57.080Z,1013.22
2017-11-20T00:01:57.042Z,1013.21
2017-11-20T00:02:57.014Z,1013.20
2017-11-20T00:03:56.964Z,1013.20
2017-11-20T00:04:56.936Z,1013.08
2017-11-20T00:05:56.878Z,1013.16
2017-11-20T00:06:56.846Z,1013.12
2017-11-20T00:07:56.803Z,1013.12
2017-11-20T00:08:56.762Z,1013.04
2017-11-20T00:09:56.724Z,1013.01
2017-11-20T00:10:56.688Z,1012.99
2017-11-20T00:11:56.654Z,1012.96
2017-11-20T00:12:56.626Z,1013.00
2017-11-20T00:13:56.649Z,1012.91
2017-11-20T00:14:56.528Z,1013.00
2017-11-20T00:15:56.486Z,1012.96
2017-11-20T00:16:56.448Z,1012.92
2017-11-20T00:17:56.416Z,1012.92
2017-11-20T00:18:56.369Z,1012.98
2017-11-20T00:19:56.332Z,1012.91
2017-11-20T00:20:56.305Z,1012.90
2017-11-20T00:21:56.249Z,1012.91
2017-11-20T00:22:56.212Z,1012.87
2017-11-20T00:23:56.172Z,1012.89
2017-11-20T00:24:56.134Z,1012.81
2017-11-20T00:25:56.095Z,1012.82
2017-11-20T00:26:56.706Z,1012.87
2017-11-20T00:27:56.016Z,1012.88
2017-11-20T00:28:55.979Z,1012.89
2017-11-20T00:29:55.941Z,1012.82
2017-11-20T00:30:55.900Z,1012.82
2017-11-20T00:31:55.854Z,1012.76
2017-11-20T00:32:55.817Z,1012.75
2017-11-20T00:33:55.780Z,1012.82
2017-11-20T00:34:55.746Z,1012.71
2017-11-20T00:35:55.699Z,1012.74
2017-11-20T00:36:55.678Z,1012.80
2017-11-20T00:37:55.624Z,1012.75
2017-11-20T00:38:55.584Z,1012.83
2017-11-20T00:39:55.545Z,1012.80
2017-11-20T00:40:55.505Z,1012.82
2017-11-20T00:41:55.466Z,1012.83
2017-11-20T00:42:55.438Z,1012.83
2017-11-20T00:43:55.381Z,1012.67
2017-11-20T00:44:55.350Z,1012.88
2017-11-20T00:45:55.588Z,1012.79
2017-11-20T00:46:55.269Z,1012.88
2017-11-20T00:47:55.231Z,1012.77
2017-11-20T00:48:55.210Z,1012.90
2017-11-20T00:49:55.153Z,1012.86
2017-11-20T00:50:55.126Z,1012.95
2017-11-20T00:51:55.080Z,1012.97
2017-11-20T00:52:55.028Z,1012.94
2017-11-20T00:53:55.012Z,1012.95
2017-11-20T00:54:54.955Z,1012.97
2017-11-20T00:55:54.913Z,1012.93
2017-11-20T00:56:54.876Z,1012.89
2017-11-20T00:57:54.838Z,1012.95
2017-11-20T00:58:54.884Z,1012.95
2017-11-20T00:59:54.764Z,1012.91
2017-11-20T01:00:54.720Z,1012.89
2017-11-20T01:01:54.683Z,1012.98
2017-11-20T01:02:54.643Z,1012.98
2017-11-20T01:03:54.602Z,1012.94
2017-11-20T01:04:54.561Z,1013.01
2017-11-20T01:05:54.519Z,1013.01
2017-11-20T01:06:54.484Z,1013.04
2017-11-20T01:07:54.450Z,1013.07
2017-11-20T01:08:54.406Z,1013.11
2017-11-20T01:09:54.377Z,1013.05
2017-11-20T01:10:54.328Z,1013.05
2017-11-20T01:11:54.291Z,1013.07
2017-11-20T01:12:54.248Z,1013.03
2017-11-20T01:13:54.226Z,1013.01
2017-11-20T01:14:54.178Z,1013.03
2017-11-20T01:15:54.130Z,1013.04
2017-11-20T01:16:54.088Z,1013.03
2017-11-20T01:17:54.069Z,1012.98
2017-11-20T01:18:54.013Z,1012.95
2017-11-20T01:19:53.971Z,1012.97
2017-11-20T01:20:54.505Z,1012.92
2017-11-20T01:21:53.896Z,1012.98
2017-11-20T01:22:53.860Z,1012.99
2017-11-20T01:23:53.819Z,1012.96
2017-11-20T01:24:53.777Z,1013.04
2017-11-20T01:25:53.740Z,1013.02
2017-11-20T01:26:53.707Z,1013.05
2017-11-20T01:27:53.659Z,1013.08
2017-11-20T01:28:53.624Z,1013.03
2017-11-20T01:29:53.581Z,1013.06
2017-11-20T01:30:53.546Z,1013.02
2017-11-20T01:31:53.508Z,1013.11
2017-11-20T01:32:53.473Z,1013.10
2017-11-20T01:33:53.425Z,1013.10
2017-11-20T01:34:53.407Z,1013.14
2017-11-20T01:35:53.351Z,1013.05
2017-11-20T01:36:53.306Z,1013.12
2017-11-20T01:37:53.278Z,1013.13
2017-11-20T01:38:53.225Z,1013.09
2017-11-20T01:39:53.189Z,1013.07
2017-11-20T01:40:53.155Z,1013.09
2017-11-20T01:41:53.110Z,1013.04
2017-11-20T01:42:53.073Z,1013.02
2017-11-20T01:43:53.036Z,1012.98
2017-11-20T01:44:52.998Z,1012.97
2017-11-20T01:45:52.956Z,1012.96
2017-11-20T01:46:52.915Z,1012.97
2017-11-20T01:47:52.892Z,1012.96
2017-11-20T01:48:52.867Z,1012.98
2017-11-20T01:49:53.114Z,1012.93
2017-11-20T01:50:52.764Z,1012.97
2017-11-20T01:51:52.722Z,1012.93
2017-11-20T01:52:52.690Z,1012.91
2017-11-20T01:53:52.662Z,1012.92
2017-11-20T01:54:52.614Z,1012.92
2017-11-20T01:55:52.610Z,1012.86
2017-11-20T01:56:52.523Z,1012.86
2017-11-20T01:57:52.483Z,1012.82
2017-11-20T01:58:52.452Z,1012.86
2017-11-20T01:59:52.405Z,1012.83
2017-11-20T02:00:52.694Z,1012.77
2017-11-20T02:01:52.326Z,1012.84
2017-11-20T02:02:52.291Z,1012.76
2017-11-20T02:03:52.244Z,1012.76
2017-11-20T02:04:52.203Z,1012.74
2017-11-20T02:05:52.171Z,1012.79
2017-11-20T02:06:52.121Z,1012.73
2017-11-20T02:07:52.088Z,1012.74
2017-11-20T02:08:52.048Z,1012.73
2017-11-20T02:09:52.031Z,1012.62
2017-11-20T02:10:51.974Z,1012.61
2017-11-20T02:11:52.004Z,1012.60
2017-11-20T02:12:51.902Z,1012.58
2017-11-20T02:13:51.870Z,1012.54
2017-11-20T02:14:51.813Z,1012.47
2017-11-20T02:15:51.790Z,1012.49
2017-11-20T02:16:51.729Z,1012.53
2017-11-20T02:17:51.694Z,1012.55
2017-11-20T02:18:51.659Z,1012.56
2017-11-20T02:19:51.616Z,1012.53
2017-11-20T02:20:51.595Z,1012.54
2017-11-20T02:21:51.544Z,1012.54
2017-11-20T02:22:51.495Z,1012.55
2017-11-20T02:23:51.456Z,1012.53
2017-11-20T02:24:51.574Z,1012.55
2017-11-20T02:25:51.377Z,1012.50
2017-11-20T02:26:51.337Z,1012.49
2017-11-20T02:27:51.296Z,1012.48
2017-11-20T02:28:51.258Z,1012.49
2017-11-20T02:29:51.226Z,1012.47
2017-11-20T02:30:51.579Z,1012.51
2017-11-20T02:31:51.140Z,1012.46
2017-11-20T02:32:51.100Z,1012.48
2017-11-20T02:33:51.096Z,1012.46
2017-11-20T02:34:51.022Z,1012.49
2017-11-20T02:35:50.986Z,1012.41
2017-11-20T02:36:50.940Z,1012.45
2017-11-20T02:37:50.905Z,1012.48
2017-11-20T02:38:50.866Z,1012.49
2017-11-20T02:39:50.816Z,1012.47
2017-11-20T02:40:50.782Z,1012.47
2017-11-20T02:41:50.744Z,1012.43
2017-11-20T02:42:50.700Z,1012.53
2017-11-20T02:43:50.662Z,1012.48
2017-11-20T02:44:50.903Z,1012.50
2017-11-20T02:45:50.581Z,1012.44
2017-11-20T02:46:50.540Z,1012.56
2017-11-20T02:47:50.506Z,1012.54
2017-11-20T02:48:50.464Z,1012.53
2017-11-20T02:49:50.424Z,1012.48
2017-11-20T02:50:50.394Z,1012.52
2017-11-20T02:51:50.338Z,1012.50
2017-11-20T02:52:50.304Z,1012.54
2017-11-20T02:53:50.264Z,1012.38
2017-11-20T02:54:50.221Z,1012.49
2017-11-20T02:55:50.465Z,1012.51
2017-11-20T02:56:50.145Z,1012.51
2017-11-20T02:57:50.105Z,1012.43
2017-11-20T02:58:50.062Z,1012.51
2017-11-20T02:59:50.475Z,1012.48
2017-11-20T03:00:49.990Z,1012.47
2017-11-20T03:01:49.958Z,1012.45
2017-11-20T03:02:49.908Z,1012.43
2017-11-20T03:03:49.874Z,1012.51
2017-11-20T03:04:49.838Z,1012.49
2017-11-20T03:05:49.795Z,1012.48
2017-11-20T03:06:49.744Z,1012.47
2017-11-20T03:07:49.702Z,1012.41
2017-11-20T03:08:49.663Z,1012.35
2017-11-20T03:09:49.625Z,1012.44
2017-11-20T03:10:49.581Z,1012.36
2017-11-20T03:11:49.543Z,1012.41
2017-11-20T03:12:49.505Z,1012.46
2017-11-20T03:13:49.469Z,1012.37
2017-11-20T03:14:49.422Z,1012.34
2017-11-20T03:15:49.398Z,1012.36
2017-11-20T03:16:49.344Z,1012.39
2017-11-20T03:17:49.306Z,1012.38
2017-11-20T03:18:49.262Z,1012.40
2017-11-20T03:19:49.225Z,1012.39
2017-11-20T03:20:49.189Z,1012.38
2017-11-20T03:21:49.143Z,1012.39
2017-11-20T03:22:49.103Z,1012.39
2017-11-20T03:23:49.064Z,1012.41
2017-11-20T03:24:49.024Z,1012.34
2017-11-20T03:25:48.983Z,1012.33
2017-11-20T03:26:48.943Z,1012.28
2017-11-20T03:27:48.908Z,1012.39
2017-11-20T03:28:48.864Z,1012.39
2017-11-20T03:29:48.823Z,1012.38
2017-11-20T03:30:48.791Z,1012.38
2017-11-20T03:31:48.746Z,1012.42
2017-11-20T03:32:48.703Z,1012.45
2017-11-20T03:33:48.668Z,1012.42
2017-11-20T03:34:48.623Z,1012.44
2017-11-20T03:35:48.581Z,1012.37
2017-11-20T03:36:48.548Z,1012.39
2017-11-20T03:37:48.502Z,1012.38
2017-11-20T03:38:48.461Z,1012.39
2017-11-20T03:39:48.437Z,1012.41
2017-11-20T03:40:48.385Z,1012.38
2017-11-20T03:41:48.342Z,1012.37
2017-11-20T03:42:48.303Z,1012.40
2017-11-20T03:43:48.262Z,1012.41
2017-11-20T03:44:48.223Z,1012.37
2017-11-20T03:45:48.183Z,1012.37
2017-11-20T03:46:48.142Z,1012.34
2017-11-20T03:47:48.102Z,1012.34
2017-11-20T03:48:48.064Z,1012.24
2017-11-20T03:49:48.027Z,1012.28
2017-11-20T03:50:47.983Z,1012.18
2017-11-20T03:51:47.942Z,1012.31
2017-11-20T03:52:47.906Z,1012.30
2017-11-20T03:53:47.863Z,1012.34
2017-11-20T03:54:47.823Z,1012.37
2017-11-20T03:55:47.786Z,1012.33
2017-11-20T03:56:47.743Z,1012.31
2017-11-20T03:57:47.703Z,1012.33
2017-11-20T03:58:47.662Z,1012.35
2017-11-20T03:59:47.621Z,1012.31
2017-11-20T04:00:47.588Z,1012.32
2017-11-20T04:01:47.546Z,1012.35
2017-11-20T04:02:47.503Z,1012.35
2017-11-20T04:03:47.464Z,1012.35
2017-11-20T04:04:47.424Z,1012.40
2017-11-20T04:05:47.387Z,1012.42
2017-11-20T04:06:47.345Z,1012.38
2017-11-20T04:07:47.306Z,1012.38
2017-11-20T04:08:47.264Z,1012.37
2017-11-20T04:09:47.548Z,1012.38
2017-11-20T04:10:47.183Z,1012.38
2017-11-20T04:11:47.144Z,1012.32
2017-11-20T04:12:47.104Z,1012.33
2017-11-20T04:13:47.092Z,1012.30
2017-11-20T04:14:47.025Z,1012.31
2017-11-20T04:15:46.984Z,1012.27
2017-11-20T04:16:46.945Z,1012.31
2017-11-20T04:17:46.904Z,1012.34
2017-11-20T04:18:46.868Z,1012.27
2017-11-20T04:19:46.851Z,1012.31
2017-11-20T04:20:46.787Z,1012.25
2017-11-20T04:21:46.755Z,1012.29
2017-11-20T04:22:46.707Z,1012.34
2017-11-20T04:23:46.665Z,1012.21
2017-11-20T04:24:46.626Z,1012.19
2017-11-20T04:25:46.587Z,1012.15
2017-11-20T04:26:46.544Z,1012.17
2017-11-20T04:27:46.508Z,1012.21
2017-11-20T04:28:46.467Z,1012.18
2017-11-20T04:29:46.429Z,1012.16
2017-11-20T04:30:46.387Z,1012.16
2017-11-20T04:31:46.347Z,1012.17
2017-11-20T04:32:46.308Z,1012.12
2017-11-20T04:33:46.270Z,1012.13
2017-11-20T04:34:46.234Z,1012.13
2017-11-20T04:35:46.191Z,1012.14
2017-11-20T04:36:46.146Z,1012.08
2017-11-20T04:37:46.112Z,1012.07
2017-11-20T04:38:46.073Z,1012.14
2017-11-20T04:39:46.029Z,1012.14
2017-11-20T04:40:45.997Z,1012.13
2017-11-20T04:41:45.953Z,1012.17
2017-11-20T04:42:45.910Z,1012.15
2017-11-20T04:43:45.871Z,1012.19
2017-11-20T04:44:45.833Z,1012.12
2017-11-20T04:45:45.795Z,1012.17
2017-11-20T04:46:45.757Z,1012.16
2017-11-20T04:47:45.713Z,1012.19
2017-11-20T04:48:45.674Z,1012.14
2017-11-20T04:49:45.635Z,1012.17
2017-11-20T04:50:45.599Z,1012.18
2017-11-20T04:51:45.554Z,1012.15
2017-11-20T04:52:45.524Z,1012.18
2017-11-20T04:53:45.476Z,1012.17
2017-11-20T04:54:45.431Z,1012.16
2017-11-20T04:55:45.398Z,1012.14
2017-11-20T04:56:45.356Z,1012.17
2017-11-20T04:57:45.318Z,1012.13
2017-11-20T04:58:45.280Z,1012.12
2017-11-20T04:59:45.237Z,1012.03
2017-11-20T05:00:45.199Z,1012.09
2017-11-20T05:01:45.168Z,1012.02
2017-11-20T05:02:45.119Z,1012.05
2017-11-20T05:03:45.080Z,1012.04
2017-11-20T05:04:45.042Z,1012.11
2017-11-20T05:05:45.001Z,1012.12
2017-11-20T05:06:44.960Z,1012.10
2017-11-20T05:07:45.336Z,1012.09
2017-11-20T05:08:44.881Z,1012.08
2017-11-20T05:09:44.842Z,1012.07
2017-11-20T05:10:44.802Z,1012.05
2017-11-20T05:11:50.403Z,1012.03
2017-11-20T05:12:44.726Z,1012.00
2017-11-20T05:13:44.684Z,1012.01
2017-11-20T05:14:44.644Z,1012.05
2017-11-20T05:15:44.608Z,1012.00
2017-11-20T05:16:44.566Z,1012.06
2017-11-20T05:17:44.527Z,1012.03
2017-11-20T05:18:44.486Z,1012.02
2017-11-20T05:19:44.446Z,1012.02
2017-11-20T05:20:44.407Z,1012.03
2017-11-20T05:21:44.372Z,1012.02
2017-11-20T05:22:44.328Z,1012.05
2017-11-20T05:23:44.289Z,1012.01
2017-11-20T05:24:44.284Z,1012.02
2017-11-20T05:25:44.211Z,1012.03
2017-11-20T05:26:44.174Z,1011.98
2017-11-20T05:27:44.132Z,1011.93
2017-11-20T05:28:44.091Z,1011.86
2017-11-20T05:29:44.067Z,1011.91
2017-11-20T05:30:44.012Z,1011.90
2017-11-20T05:31:43.994Z,1011.90
2017-11-20T05:32:43.933Z,1011.96
2017-11-20T05:33:43.895Z,1011.95
2017-11-20T05:34:43.856Z,1011.97
2017-11-20T05:35:43.819Z,1011.96
2017-11-20T05:36:43.779Z,1011.93
2017-11-20T05:37:43.738Z,1011.99
2017-11-20T05:38:43.697Z,1012.01
2017-11-20T05:39:43.657Z,1011.98
2017-11-20T05:40:43.626Z,1011.94
2017-11-20T05:41:43.580Z,1011.95
2017-11-20T05:42:43.539Z,1012.00
2017-11-20T05:43:43.498Z,1011.98
2017-11-20T05:44:43.458Z,1011.96
2017-11-20T05:45:43.421Z,1011.94
2017-11-20T05:46:43.384Z,1011.97
2017-11-20T05:47:43.342Z,1011.95
2017-11-20T05:48:43.303Z,1011.95
2017-11-20T05:49:43.263Z,1011.92
2017-11-20T05:50:43.223Z,1011.93
2017-11-20T05:51:43.183Z,1011.95
2017-11-20T05:52:43.162Z,1011.96
2017-11-20T05:53:43.106Z,1012.02
2017-11-20T05:54:43.070Z,1011.99
2017-11-20T05:55:43.680Z,1011.95
2017-11-20T05:56:42.987Z,1012.00
2017-11-20T05:57:42.950Z,1012.02
2017-11-20T05:58:42.912Z,1011.98
2017-11-20T05:59:42.875Z,1012.01
2017-11-20T06:00:42.833Z,1012.04
2017-11-20T06:01:42.792Z,1012.02
2017-11-20T06:02:42.748Z,1011.90
2017-11-20T06:03:42.710Z,1012.00
2017-11-20T06:04:42.810Z,1011.97
2017-11-20T06:05:42.635Z,1011.99
2017-11-20T06:06:42.593Z,1011.94
2017-11-20T06:07:42.554Z,1011.93
2017-11-20T06:08:42.513Z,1011.85
2017-11-20T06:09:42.475Z,1011.91
2017-11-20T06:10:42.431Z,1011.87
2017-11-20T06:11:42.394Z,1011.80
2017-11-20T06:12:42.361Z,1011.86
2017-11-20T06:13:42.318Z,1011.83
2017-11-20T06:14:42.282Z,1011.88
2017-11-20T06:15:42.239Z,1011.72
2017-11-20T06:16:42.198Z,1011.89
2017-11-20T06:17:42.221Z,1011.86
2017-11-20T06:18:42.120Z,1011.90
2017-11-20T06:19:42.076Z,1011.79
2017-11-20T06:20:42.040Z,1011.77
2017-11-20T06:21:41.998Z,1011.73
2017-11-20T06:22:41.960Z,1011.78
2017-11-20T06:23:41.933Z,1011.82
2017-11-20T06:24:41.892Z,1011.83
2017-11-20T06:25:41.842Z,1011.83
2017-11-20T06:26:41.805Z,1011.77
2017-11-20T06:27:41.765Z,1011.85
2017-11-20T06:28:41.732Z,1011.86
2017-11-20T06:29:41.685Z,1011.75
2017-11-20T06:30:41.645Z,1011.85
2017-11-20T06:31:41.607Z,1011.85
2017-11-20T06:32:41.566Z,1011.92
2017-11-20T06:33:41.529Z,1011.78
2017-11-20T06:34:41.516Z,1011.81
2017-11-20T06:35:41.451Z,1011.88
2017-11-20T06:36:41.407Z,1011.90
2017-11-20T06:37:41.373Z,1011.83
2017-11-20T06:38:41.336Z,1011.90
2017-11-20T06:39:41.290Z,1011.81
2017-11-20T06:40:41.251Z,1011.83
2017-11-20T06:41:41.211Z,1011.85
2017-11-20T06:42:41.175Z,1011.87
2017-11-20T06:43:41.141Z,1011.87
2017-11-20T06:44:41.094Z,1011.86
2017-11-20T06:45:41.056Z,1011.89
2017-11-20T06:46:41.020Z,1011.89
2017-11-20T06:47:40.976Z,1011.89
2017-11-20T06:48:41.582Z,1011.88
2017-11-20T06:49:40.906Z,1011.95
2017-11-20T06:50:40.857Z,1011.98
2017-11-20T06:51:40.821Z,1011.94
2017-11-20T06:52:40.814Z,1011.95
2017-11-20T06:53:40.741Z,1011.98
2017-11-20T06:54:40.701Z,1012.05
2017-11-20T06:55:40.661Z,1012.03
2017-11-20T06:56:40.621Z,1012.04
2017-11-20T06:57:40.585Z,1012.06
2017-11-20T06:58:40.541Z,1012.08
2017-11-20T06:59:40.501Z,1012.13
2017-11-20T07:00:40.821Z,1012.10
2017-11-20T07:01:40.820Z,1012.13
2017-11-20T07:02:40.392Z,1011.92
2017-11-20T07:03:40.347Z,1012.14
2017-11-20T07:04:40.307Z,1012.07
2017-11-20T07:05:40.267Z,1012.11
2017-11-20T07:06:40.227Z,1012.15
2017-11-20T07:07:40.189Z,1012.21
2017-11-20T07:08:40.154Z,1012.16
2017-11-20T07:09:40.109Z,1012.13
2017-11-20T07:10:40.068Z,1012.09
2017-11-20T07:11:40.033Z,1012.05
2017-11-20T07:12:39.992Z,1012.12
2017-11-20T07:13:39.953Z,1012.09
2017-11-20T07:14:39.920Z,1012.07
2017-11-20T07:15:39.887Z,1012.17
2017-11-20T07:16:39.835Z,1012.16
2017-11-20T07:17:39.795Z,1012.11
2017-11-20T07:18:39.771Z,1012.13
2017-11-20T07:19:39.715Z,1012.17
2017-11-20T07:20:39.682Z,1012.13
2017-11-20T07:21:39.636Z,1012.19
2017-11-20T07:22:39.597Z,1012.21
2017-11-20T07:23:39.558Z,1012.20
2017-11-20T07:24:39.519Z,1012.16
2017-11-20T07:25:39.479Z,1012.13
2017-11-20T07:26:39.460Z,1012.16
2017-11-20T07:27:39.399Z,1012.14
2017-11-20T07:28:39.369Z,1012.19
2017-11-20T07:29:39.324Z,1012.22
2017-11-20T07:30:39.418Z,1012.29
2017-11-20T07:31:39.243Z,1012.29
2017-11-20T07:32:39.209Z,1012.30
2017-11-20T07:33:39.164Z,1012.29
2017-11-20T07:34:39.125Z,1012.23
2017-11-20T07:35:39.089Z,1012.27
2017-11-20T07:36:39.046Z,1012.37
2017-11-20T07:37:39.008Z,1012.36
2017-11-20T07:38:38.976Z,1012.35
2017-11-20T07:39:38.928Z,1012.36
2017-11-20T07:40:38.889Z,1012.38
2017-11-20T07:41:38.851Z,1012.40
2017-11-20T07:42:38.813Z,1012.41
2017-11-20T07:43:38.772Z,1012.41
2017-11-20T07:44:38.732Z,1012.41
2017-11-20T07:45:38.690Z,1012.40
2017-11-20T07:46:38.659Z,1012.40
2017-11-20T07:47:38.613Z,1012.36
2017-11-20T07:48:38.576Z,1012.37
2017-11-20T07:49:38.534Z,1012.42
2017-11-20T07:50:38.496Z,1012.43
2017-11-20T07:51:38.462Z,1012.36
2017-11-20T07:52:38.418Z,1012.37
2017-11-20T07:53:38.380Z,1012.37
2017-11-20T07:54:38.340Z,1012.39
2017-11-20T07:55:38.301Z,1012.30
2017-11-20T07:56:38.260Z,1012.33
2017-11-20T07:57:38.224Z,1012.27
2017-11-20T07:58:38.189Z,1012.26
2017-11-20T07:59:38.145Z,1012.24
2017-11-20T08:00:38.104Z,1012.34
2017-11-20T08:01:38.066Z,1012.32
2017-11-20T08:02:38.026Z,1012.33
2017-11-20T08:03:37.988Z,1012.27
2017-11-20T08:04:37.954Z,1012.15
2017-11-20T08:05:37.918Z,1012.24
2017-11-20T08:06:37.868Z,1012.14
2017-11-20T08:07:37.829Z,1012.07
2017-11-20T08:08:37.790Z,1012.18
2017-11-20T08:09:37.756Z,1012.09
2017-11-20T08:10:37.714Z,1012.17
2017-11-20T08:11:37.672Z,1012.04
2017-11-20T08:12:37.636Z,1012.10
2017-11-20T08:13:37.593Z,1012.01
2017-11-20T08:14:37.555Z,1012.04
2017-11-20T08:15:37.515Z,1011.96
2017-11-20T08:16:37.486Z,1012.01
2017-11-20T08:17:37.440Z,1011.94
2017-11-20T08:18:37.394Z,1011.91
2017-11-20T08:19:37.357Z,1011.86
2017-11-20T08:20:37.319Z,1011.77
2017-11-20T08:21:37.282Z,1011.81
2017-11-20T08:22:37.244Z,1011.78
2017-11-20T08:23:37.204Z,1011.76
2017-11-20T08:24:37.163Z,1011.70
2017-11-20T08:25:37.128Z,1011.69
2017-11-20T08:26:37.085Z,1011.72
2017-11-20T08:27:37.046Z,1011.65
2017-11-20T08:28:37.011Z,1011.64
2017-11-20T08:29:36.970Z,1011.67
2017-11-20T08:30:36.929Z,1011.71
2017-11-20T08:31:36.889Z,1011.64
2017-11-20T08:32:36.847Z,1011.60
2017-11-20T08:33:37.176Z,1011.61
2017-11-20T08:34:36.780Z,1011.61
2017-11-20T08:35:36.738Z,1011.60
2017-11-20T08:36:36.696Z,1011.55
2017-11-20T08:37:36.657Z,1011.55
2017-11-20T08:38:36.618Z,1011.53
2017-11-20T08:39:36.578Z,1011.59
2017-11-20T08:40:36.548Z,1011.59
2017-11-20T08:41:36.498Z,1011.59
2017-11-20T08:42:36.462Z,1011.50
2017-11-20T08:43:36.423Z,1011.56
2017-11-20T08:44:36.385Z,1011.55
2017-11-20T08:45:36.341Z,1011.55
2017-11-20T08:46:36.308Z,1011.50
2017-11-20T08:47:36.269Z,1011.47
2017-11-20T08:48:36.229Z,1011.52
2017-11-20T08:49:36.500Z,1011.54
2017-11-20T08:50:36.150Z,1011.51
2017-11-20T08:51:36.114Z,1011.51
2017-11-20T08:52:36.076Z,1011.45
2017-11-20T08:53:36.036Z,1011.51
2017-11-20T08:54:35.996Z,1011.55
2017-11-20T08:55:35.963Z,1011.44
2017-11-20T08:56:35.922Z,1011.40
2017-11-20T08:57:35.882Z,1011.51
2017-11-20T08:58:35.840Z,1011.43
2017-11-20T08:59:35.804Z,1011.42
2017-11-20T09:00:35.766Z,1011.29
2017-11-20T09:01:35.726Z,1011.27
2017-11-20T09:02:35.685Z,1011.27
2017-11-20T09:03:35.652Z,1011.24
2017-11-20T09:04:35.621Z,1011.25
2017-11-20T09:05:35.568Z,1011.25
2017-11-20T09:06:35.531Z,1011.27
2017-11-20T09:07:35.494Z,1011.17
2017-11-20T09:08:35.470Z,1011.23
2017-11-20T09:09:35.413Z,1011.21
2017-11-20T09:10:35.378Z,1011.18
2017-11-20T09:11:35.338Z,1011.20
2017-11-20T09:12:35.299Z,1011.24
2017-11-20T09:13:35.261Z,1011.21
2017-11-20T09:14:35.221Z,1011.23
2017-11-20T09:15:35.189Z,1011.23
2017-11-20T09:16:35.145Z,1011.22
2017-11-20T09:17:35.107Z,1011.22
2017-11-20T09:18:35.064Z,1011.16
2017-11-20T09:19:35.026Z,1011.15
2017-11-20T09:20:35.231Z,1011.10
2017-11-20T09:21:34.953Z,1011.02
2017-11-20T09:22:34.916Z,1011.01
2017-11-20T09:23:34.873Z,1011.02
2017-11-20T09:24:34.835Z,1011.05
2017-11-20T09:25:34.797Z,1011.04
2017-11-20T09:26:34.757Z,1011.03
2017-11-20T09:27:34.730Z,1011.00
2017-11-20T09:28:34.680Z,1011.04
2017-11-20T09:29:34.643Z,1011.03
2017-11-20T09:30:34.600Z,1011.05
2017-11-20T09:31:34.566Z,1010.99
2017-11-20T09:32:34.525Z,1011.00
2017-11-20T09:33:34.492Z,1011.00
2017-11-20T09:34:34.449Z,1010.91
2017-11-20T09:35:34.412Z,1010.93
2017-11-20T09:36:34.374Z,1010.81
2017-11-20T09:37:34.332Z,1010.96
2017-11-20T09:38:34.291Z,1010.87
2017-11-20T09:39:34.263Z,1010.85
2017-11-20T09:40:34.221Z,1010.81
2017-11-20T09:41:34.176Z,1010.79
2017-11-20T09:42:34.138Z,1010.80
2017-11-20T09:43:34.100Z,1010.69
2017-11-20T09:44:34.062Z,1010.67
2017-11-20T09:45:34.032Z,1010.60
2017-11-20T09:46:33.983Z,1010.50
2017-11-20T09:47:33.946Z,1010.51
2017-11-20T09:48:33.907Z,1010.48
2017-11-20T09:49:34.117Z,1010.41
2017-11-20T09:50:33.835Z,1010.50
2017-11-20T09:51:33.795Z,1010.49
2017-11-20T09:52:33.752Z,1010.51
2017-11-20T09:53:33.711Z,1010.48
2017-11-20T09:54:33.675Z,1010.46
2017-11-20T09:55:33.636Z,1010.42
2017-11-20T09:56:33.604Z,1010.47
2017-11-20T09:57:33.560Z,1010.48
2017-11-20T09:58:33.519Z,1010.42
2017-11-20T09:59:33.481Z,1010.53
2017-11-20T10:00:33.441Z,1010.45
2017-11-20T10:01:33.405Z,1010.42
2017-11-20T10:02:33.367Z,1010.38
2017-11-20T10:03:33.324Z,1010.42
2017-11-20T10:04:33.711Z,1010.32
2017-11-20T10:05:33.246Z,1010.25
2017-11-20T10:06:33.211Z,1010.29
2017-11-20T10:07:33.170Z,1010.22
2017-11-20T10:08:33.135Z,1010.16
2017-11-20T10:09:33.085Z,1010.17
2017-11-20T10:10:33.051Z,1010.16
2017-11-20T10:11:33.011Z,1010.18
2017-11-20T10:12:32.973Z,1010.19
2017-11-20T10:13:32.934Z,1010.15
2017-11-20T10:14:32.906Z,1010.15
2017-11-20T10:15:32.855Z,1010.06
2017-11-20T10:16:32.816Z,1010.09
2017-11-20T10:17:32.778Z,1010.03
2017-11-20T10:18:32.743Z,1010.01
2017-11-20T10:19:32.701Z,1009.93
2017-11-20T10:20:32.666Z,1009.93
2017-11-20T10:21:32.624Z,1009.96
2017-11-20T10:22:32.583Z,1009.93
2017-11-20T10:23:32.539Z,1009.96
2017-11-20T10:24:32.502Z,1009.95
2017-11-20T10:25:32.467Z,1009.98
2017-11-20T10:26:32.428Z,1010.04
2017-11-20T10:27:32.387Z,1010.02
2017-11-20T10:28:32.350Z,1010.08
2017-11-20T10:29:32.309Z,1010.01
2017-11-20T10:30:32.274Z,1010.00
2017-11-20T10:31:32.226Z,1009.99
2017-11-20T10:32:32.195Z,1009.96
2017-11-20T10:33:32.150Z,1009.91
2017-11-20T10:34:32.112Z,1009.87
2017-11-20T10:35:32.073Z,1009.85
2017-11-20T10:36:32.039Z,1009.82
2017-11-20T10:37:31.995Z,1009.86
2017-11-20T10:38:31.965Z,1009.88
2017-11-20T10:39:31.917Z,1009.88
2017-11-20T10:40:31.874Z,1009.85
2017-11-20T10:41:31.841Z,1009.84
2017-11-20T10:42:31.800Z,1009.88
2017-11-20T10:43:31.764Z,1009.83
2017-11-20T10:44:31.716Z,1009.83
2017-11-20T10:45:31.681Z,1009.82
2017-11-20T10:46:31.638Z,1009.82
2017-11-20T10:47:31.602Z,1009.75
2017-11-20T10:48:31.563Z,1009.73
2017-11-20T10:49:31.537Z,1009.76
2017-11-20T10:50:31.485Z,1009.77
2017-11-20T10:51:31.448Z,1009.77
2017-11-20T10:52:31.409Z,1009.78
2017-11-20T10:53:31.364Z,1009.74
2017-11-20T10:54:31.329Z,1009.78
2017-11-20T10:55:31.289Z,1009.75
2017-11-20T10:56:31.253Z,1009.66
2017-11-20T10:57:31.210Z,1009.67
2017-11-20T10:58:31.174Z,1009.72
2017-11-20T10:59:31.136Z,1009.73
2017-11-20T11:00:31.095Z,1009.58
2017-11-20T11:01:31.058Z,1009.58
2017-11-20T11:02:31.021Z,1009.63
2017-11-20T11:03:30.976Z,1009.60
2017-11-20T11:04:30.940Z,1009.61
2017-11-20T11:05:30.908Z,1009.60
2017-11-20T11:06:30.860Z,1009.63
2017-11-20T11:07:30.823Z,1009.62
2017-11-20T11:08:30.796Z,1009.63
2017-11-20T11:09:30.743Z,1009.65
2017-11-20T11:10:30.698Z,1009.59
2017-11-20T11:11:30.668Z,1009.65
2017-11-20T11:12:30.625Z,1009.61
2017-11-20T11:13:30.584Z,1009.61
2017-11-20T11:14:30.546Z,1009.63
2017-11-20T11:15:30.526Z,1009.66
2017-11-20T11:16:30.465Z,1009.60
2017-11-20T11:17:30.432Z,1009.60
2017-11-20T11:18:30.402Z,1009.61
2017-11-20T11:19:30.361Z,1009.51
2017-11-20T11:20:30.312Z,1009.58
2017-11-20T11:21:30.281Z,1009.56
2017-11-20T11:22:30.236Z,1009.53
2017-11-20T11:23:30.197Z,1009.55
2017-11-20T11:24:30.157Z,1009.60
2017-11-20T11:25:30.118Z,1009.58
2017-11-20T11:26:30.074Z,1009.52
2017-11-20T11:27:30.041Z,1009.48
2017-11-20T11:28:30.001Z,1009.60
2017-11-20T11:29:29.961Z,1009.48
2017-11-20T11:30:29.923Z,1009.52
2017-11-20T11:31:29.883Z,1009.53
2017-11-20T11:32:29.845Z,1009.56
2017-11-20T11:33:29.812Z,1009.51
2017-11-20T11:34:29.765Z,1009.56
2017-11-20T11:35:29.729Z,1009.57
2017-11-20T11:36:29.689Z,1009.54
2017-11-20T11:37:29.651Z,1009.50
2017-11-20T11:38:29.612Z,1009.48
2017-11-20T11:39:29.572Z,1009.48
2017-11-20T11:40:29.536Z,1009.46
2017-11-20T11:41:29.498Z,1009.41
2017-11-20T11:42:29.456Z,1009.44
2017-11-20T11:43:29.415Z,1009.39
2017-11-20T11:44:29.432Z,1009.42
2017-11-20T11:45:29.339Z,1009.31
2017-11-20T11:46:29.300Z,1009.23
2017-11-20T11:47:29.260Z,1009.27
2017-11-20T11:48:29.222Z,1009.19
2017-11-20T11:49:29.185Z,1009.20
2017-11-20T11:50:29.144Z,1009.17
2017-11-20T11:51:29.105Z,1009.11
2017-11-20T11:52:29.067Z,1009.14
2017-11-20T11:53:29.031Z,1009.13
2017-11-20T11:54:28.989Z,1009.06
2017-11-20T11:55:28.949Z,1009.06
2017-11-20T11:56:28.910Z,1009.04
2017-11-20T11:57:28.875Z,1009.03
2017-11-20T11:58:28.835Z,1009.01
2017-11-20T11:59:28.796Z,1008.93
2017-11-20T12:00:28.751Z,1009.03
2017-11-20T12:01:28.718Z,1008.97
2017-11-20T12:02:28.676Z,1009.00
2017-11-20T12:03:28.641Z,1008.93
2017-11-20T12:04:28.600Z,1008.96
2017-11-20T12:05:28.565Z,1009.01